SBI700 UNNT-ZBAD
Flight info
| Callsign | SBI700 |
|---|---|
| Flight time | N/A |
| Altitude | 35000 |
| Route | OGATI1L OGATI A308 LEKOS P982 TR/K0828F370 P982 DARNO/K0832S1130 Y746 NIXAL G343 TMR/K0837S1160 W65 TUSLA/K0837S1130 W64 ELAPU ELAPU5L |
| Aircraft | A319/M-SDE3FGHIRWY/LB1 |
Departure
| Time | 2026-05-01 09:06 |
|---|---|
| Airport | Novosibirsk Tolmachevo Airport (UNNT) |
Arrival
| Time | N/A |
|---|---|
| Airport | Beijing Daxing International Airport (ZBAD) |
| Time | Latitude | Longitude | Altitude | Speed | Heading |
|---|---|---|---|---|---|
| 2026-05-01 08:41 | 55.01141 | 82.66746 | 372 ft | 0 kts | 171° |
| 2026-05-01 08:56 | 55.01141 | 82.66745 | 372 ft | 0 kts | 171° |
| 2026-05-01 08:57 | 55.01141 | 82.66746 | 372 ft | 0 kts | 171° |
| 2026-05-01 08:57 | 55.01141 | 82.66745 | 372 ft | 0 kts | 171° |
| 2026-05-01 09:00 | 55.01132 | 82.66748 | 372 ft | 6 kts | 171° |
| 2026-05-01 09:01 | 55.01062 | 82.66554 | 372 ft | 13 kts | 248° |
| 2026-05-01 09:01 | 55.01022 | 82.66367 | 373 ft | 15 kts | 252° |
| 2026-05-01 09:01 | 55.00964 | 82.66208 | 373 ft | 16 kts | 257° |
| 2026-05-01 09:01 | 55.00945 | 82.65952 | 373 ft | 27 kts | 261° |
| 2026-05-01 09:02 | 55.00909 | 82.65573 | 373 ft | 37 kts | 261° |
| 2026-05-01 09:02 | 55.00882 | 82.65213 | 373 ft | 20 kts | 266° |
| 2026-05-01 09:02 | 55.00874 | 82.64970 | 373 ft | 20 kts | 278° |
| 2026-05-01 09:02 | 55.00914 | 82.64675 | 373 ft | 30 kts | 282° |
| 2026-05-01 09:03 | 55.00947 | 82.64421 | 373 ft | 17 kts | 283° |
| 2026-05-01 09:03 | 55.00972 | 82.64233 | 373 ft | 18 kts | 283° |
| 2026-05-01 09:03 | 55.00998 | 82.64045 | 374 ft | 12 kts | 289° |
| 2026-05-01 09:03 | 55.01021 | 82.64010 | 374 ft | 0 kts | 335° |
| 2026-05-01 09:04 | 55.01022 | 82.64009 | 374 ft | 0 kts | 335° |
| 2026-05-01 09:04 | 55.01033 | 82.64005 | 374 ft | 3 kts | 348° |
| 2026-05-01 09:04 | 55.01068 | 82.63995 | 375 ft | 7 kts | 351° |
| 2026-05-01 09:04 | 55.01127 | 82.63977 | 375 ft | 11 kts | 7° |
| 2026-05-01 09:05 | 55.01162 | 82.64173 | 375 ft | 39 kts | 81° |
| 2026-05-01 09:05 | 55.01241 | 82.65038 | 373 ft | 103 kts | 81° |
| 2026-05-01 09:05 | 55.01381 | 82.66567 | 376 ft | 152 kts | 81° |
| 2026-05-01 09:05 | 55.01557 | 82.68543 | 734 ft | 170 kts | 84° |
| 2026-05-01 09:06 | 55.01738 | 82.70621 | 1370 ft | 178 kts | 83° |
| 2026-05-01 09:06 | 55.01935 | 82.72769 | 2099 ft | 180 kts | 84° |
| 2026-05-01 09:06 | 55.02138 | 82.75018 | 2618 ft | 197 kts | 83° |
| 2026-05-01 09:06 | 55.02360 | 82.77492 | 2946 ft | 223 kts | 83° |
| 2026-05-01 09:07 | 55.02609 | 82.80288 | 3384 ft | 243 kts | 82° |
| 2026-05-01 09:07 | 55.02866 | 82.83242 | 4157 ft | 249 kts | 85° |
| 2026-05-01 09:07 | 55.02723 | 82.86261 | 4964 ft | 253 kts | 108° |
| 2026-05-01 09:07 | 55.01901 | 82.89012 | 5566 ft | 266 kts | 131° |
| 2026-05-01 09:08 | 55.00563 | 82.91346 | 5927 ft | 275 kts | 136° |
| 2026-05-01 09:08 | 54.99195 | 82.93690 | 6012 ft | 277 kts | 132° |
| 2026-05-01 09:08 | 54.98235 | 82.96609 | 6729 ft | 282 kts | 108° |
| 2026-05-01 09:08 | 54.97890 | 82.99987 | 7562 ft | 286 kts | 97° |
| 2026-05-01 09:09 | 54.97654 | 83.03400 | 8339 ft | 291 kts | 97° |
| 2026-05-01 09:09 | 54.97416 | 83.06974 | 9156 ft | 295 kts | 97° |
| 2026-05-01 09:09 | 54.97182 | 83.10503 | 9939 ft | 300 kts | 97° |
| 2026-05-01 09:09 | 54.96938 | 83.14167 | 10462 ft | 314 kts | 97° |
| 2026-05-01 09:10 | 54.96676 | 83.18082 | 10670 ft | 337 kts | 97° |
| 2026-05-01 09:10 | 54.96393 | 83.22276 | 10853 ft | 361 kts | 97° |
| 2026-05-01 09:10 | 54.96092 | 83.26735 | 11100 ft | 379 kts | 97° |
| 2026-05-01 09:10 | 54.95782 | 83.31332 | 11639 ft | 386 kts | 97° |
| 2026-05-01 09:11 | 54.95464 | 83.35992 | 12254 ft | 391 kts | 97° |
| 2026-05-01 09:11 | 54.95137 | 83.40731 | 12896 ft | 396 kts | 97° |
| 2026-05-01 09:11 | 54.94804 | 83.45509 | 13528 ft | 401 kts | 97° |
| 2026-05-01 09:11 | 54.94465 | 83.50348 | 14107 ft | 405 kts | 97° |
| 2026-05-01 09:12 | 54.94121 | 83.55241 | 14668 ft | 409 kts | 97° |
| 2026-05-01 09:12 | 54.93774 | 83.60175 | 15253 ft | 413 kts | 97° |
| 2026-05-01 09:12 | 54.93445 | 83.64831 | 15777 ft | 416 kts | 97° |
| 2026-05-01 09:12 | 54.93088 | 83.69847 | 16334 ft | 420 kts | 97° |
| 2026-05-01 09:13 | 54.92728 | 83.74909 | 16880 ft | 424 kts | 97° |
| 2026-05-01 09:13 | 54.92362 | 83.80016 | 17440 ft | 427 kts | 97° |
| 2026-05-01 09:13 | 54.91986 | 83.85165 | 17983 ft | 431 kts | 97° |
| 2026-05-01 09:13 | 54.91605 | 83.90363 | 18501 ft | 435 kts | 97° |
| 2026-05-01 09:14 | 54.91221 | 83.95581 | 18960 ft | 438 kts | 97° |
| 2026-05-01 09:14 | 54.90831 | 84.00866 | 19431 ft | 441 kts | 97° |
| 2026-05-01 09:14 | 54.90438 | 84.06158 | 19874 ft | 444 kts | 97° |
| 2026-05-01 09:14 | 54.90046 | 84.11431 | 20324 ft | 447 kts | 97° |
| 2026-05-01 09:15 | 54.89641 | 84.16811 | 20768 ft | 450 kts | 97° |
| 2026-05-01 09:15 | 54.89233 | 84.22209 | 21202 ft | 453 kts | 97° |
| 2026-05-01 09:15 | 54.88820 | 84.27651 | 21611 ft | 455 kts | 97° |
| 2026-05-01 09:15 | 54.88401 | 84.33112 | 22028 ft | 458 kts | 97° |
| 2026-05-01 09:16 | 54.87975 | 84.38610 | 22437 ft | 461 kts | 97° |
| 2026-05-01 09:16 | 54.87540 | 84.44148 | 22837 ft | 463 kts | 97° |
| 2026-05-01 09:16 | 54.87103 | 84.49699 | 23231 ft | 466 kts | 97° |
| 2026-05-01 09:17 | 54.86218 | 84.60913 | 23940 ft | 471 kts | 97° |
| 2026-05-01 09:17 | 54.85768 | 84.66556 | 24268 ft | 473 kts | 97° |
| 2026-05-01 09:17 | 54.85049 | 84.77949 | 24895 ft | 477 kts | 94° |
| 2026-05-01 09:18 | 54.84774 | 84.83711 | 25203 ft | 480 kts | 94° |
| 2026-05-01 09:18 | 54.84245 | 84.95289 | 25797 ft | 484 kts | 94° |
| 2026-05-01 09:19 | 54.83662 | 85.06971 | 26375 ft | 488 kts | 94° |
| 2026-05-01 09:19 | 54.83343 | 85.12856 | 26656 ft | 490 kts | 95° |
| 2026-05-01 09:19 | 54.83010 | 85.18756 | 26926 ft | 492 kts | 95° |
| 2026-05-01 09:20 | 54.82323 | 85.30619 | 27478 ft | 496 kts | 95° |
| 2026-05-01 09:20 | 54.81614 | 85.42579 | 28037 ft | 500 kts | 95° |
| 2026-05-01 09:21 | 54.80877 | 85.54532 | 28816 ft | 498 kts | 95° |
| 2026-05-01 09:21 | 54.80501 | 85.60504 | 29202 ft | 497 kts | 95° |
| 2026-05-01 09:21 | 54.79751 | 85.72395 | 29987 ft | 496 kts | 95° |
| 2026-05-01 09:22 | 54.78997 | 85.84268 | 30670 ft | 495 kts | 96° |
| 2026-05-01 09:22 | 54.77281 | 85.95652 | 31421 ft | 492 kts | 113° |
| 2026-05-01 09:23 | 54.75828 | 86.01003 | 31790 ft | 490 kts | 116° |
| 2026-05-01 09:23 | 54.72886 | 86.11616 | 32557 ft | 487 kts | 116° |
| 2026-05-01 09:24 | 54.69973 | 86.22134 | 33306 ft | 483 kts | 116° |
| 2026-05-01 09:24 | 54.68514 | 86.27370 | 33697 ft | 482 kts | 116° |
| 2026-05-01 09:24 | 54.65611 | 86.37758 | 34408 ft | 478 kts | 116° |
| 2026-05-01 09:25 | 54.62715 | 86.48071 | 35018 ft | 477 kts | 116° |
| 2026-05-01 09:26 | 54.58355 | 86.63508 | 35105 ft | 478 kts | 116° |
| 2026-05-01 09:26 | 54.53974 | 86.78927 | 35103 ft | 478 kts | 116° |
| 2026-05-01 09:27 | 54.49566 | 86.94306 | 35103 ft | 478 kts | 116° |
| 2026-05-01 09:28 | 54.46627 | 87.04478 | 35099 ft | 478 kts | 116° |
| 2026-05-01 09:28 | 54.43661 | 87.14687 | 35097 ft | 478 kts | 116° |
| 2026-05-01 09:29 | 54.39203 | 87.29974 | 35097 ft | 478 kts | 116° |
| 2026-05-01 09:30 | 54.34734 | 87.45242 | 35089 ft | 477 kts | 116° |
| 2026-05-01 09:30 | 54.30240 | 87.60467 | 35083 ft | 477 kts | 116° |
| 2026-05-01 09:31 | 54.27230 | 87.70586 | 35084 ft | 478 kts | 116° |
| 2026-05-01 09:32 | 54.22692 | 87.85759 | 35082 ft | 478 kts | 116° |
| 2026-05-01 09:32 | 54.18145 | 88.00898 | 35081 ft | 478 kts | 116° |
| 2026-05-01 09:33 | 54.15098 | 88.10984 | 35083 ft | 478 kts | 116° |
| 2026-05-01 09:34 | 54.10514 | 88.26076 | 35082 ft | 478 kts | 116° |
| 2026-05-01 09:34 | 54.05914 | 88.41124 | 35078 ft | 478 kts | 116° |
| 2026-05-01 09:35 | 54.01303 | 88.56158 | 35079 ft | 478 kts | 116° |
| 2026-05-01 09:36 | 53.98229 | 88.66105 | 35079 ft | 478 kts | 116° |
| 2026-05-01 09:36 | 53.96154 | 88.72779 | 35085 ft | 478 kts | 116° |
| 2026-05-01 09:37 | 53.92151 | 88.85588 | 35086 ft | 479 kts | 117° |
| 2026-05-01 09:37 | 53.87415 | 89.00526 | 35081 ft | 479 kts | 117° |
| 2026-05-01 09:38 | 53.82658 | 89.15405 | 35092 ft | 479 kts | 117° |
| 2026-05-01 09:39 | 53.77904 | 89.30276 | 35091 ft | 479 kts | 117° |
| 2026-05-01 09:39 | 53.74737 | 89.40104 | 35094 ft | 479 kts | 117° |
| 2026-05-01 09:40 | 53.69934 | 89.54911 | 35100 ft | 480 kts | 117° |
| 2026-05-01 09:41 | 53.66728 | 89.64779 | 35105 ft | 480 kts | 117° |
| 2026-05-01 09:41 | 53.61900 | 89.79536 | 35113 ft | 480 kts | 117° |
| 2026-05-01 09:42 | 53.58659 | 89.89376 | 35117 ft | 480 kts | 117° |
| 2026-05-01 09:43 | 53.52168 | 90.08985 | 35121 ft | 480 kts | 117° |
| 2026-05-01 09:43 | 53.48929 | 90.18708 | 35119 ft | 480 kts | 117° |
| 2026-05-01 09:44 | 53.44024 | 90.33357 | 35117 ft | 480 kts | 117° |
| 2026-05-01 09:45 | 53.40743 | 90.43112 | 35112 ft | 480 kts | 117° |
| 2026-05-01 09:45 | 53.35802 | 90.57739 | 35110 ft | 481 kts | 117° |
| 2026-05-01 09:46 | 53.32497 | 90.67467 | 35111 ft | 481 kts | 117° |
| 2026-05-01 09:46 | 53.29187 | 90.77176 | 35115 ft | 481 kts | 117° |
| 2026-05-01 09:47 | 53.25863 | 90.86888 | 35116 ft | 481 kts | 117° |
| 2026-05-01 09:47 | 53.22532 | 90.96569 | 35117 ft | 481 kts | 117° |
| 2026-05-01 09:48 | 53.19195 | 91.06233 | 35119 ft | 481 kts | 117° |
| 2026-05-01 09:48 | 53.15849 | 91.15890 | 35116 ft | 481 kts | 117° |
| 2026-05-01 09:49 | 53.12498 | 91.25524 | 35116 ft | 481 kts | 118° |
| 2026-05-01 09:49 | 53.09130 | 91.35146 | 35119 ft | 481 kts | 118° |
| 2026-05-01 09:50 | 53.05752 | 91.44769 | 35123 ft | 481 kts | 118° |
| 2026-05-01 09:50 | 53.02375 | 91.54368 | 35119 ft | 481 kts | 118° |
| 2026-05-01 09:51 | 52.98988 | 91.63934 | 35120 ft | 481 kts | 118° |
| 2026-05-01 09:51 | 52.95620 | 91.73437 | 35120 ft | 481 kts | 118° |
| 2026-05-01 09:52 | 52.92225 | 91.82983 | 35117 ft | 481 kts | 118° |
| 2026-05-01 09:52 | 52.88809 | 91.92515 | 35115 ft | 481 kts | 118° |
| 2026-05-01 09:53 | 52.85378 | 92.02048 | 35114 ft | 481 kts | 118° |
| 2026-05-01 09:53 | 52.81985 | 92.11486 | 35116 ft | 480 kts | 118° |
| 2026-05-01 09:54 | 52.78563 | 92.20967 | 35120 ft | 480 kts | 118° |
| 2026-05-01 09:54 | 52.75132 | 92.30423 | 35117 ft | 480 kts | 118° |
| 2026-05-01 09:55 | 52.71679 | 92.39870 | 35121 ft | 480 kts | 118° |
| 2026-05-01 09:55 | 52.68220 | 92.49301 | 35117 ft | 481 kts | 118° |
| 2026-05-01 09:56 | 52.64765 | 92.58733 | 35123 ft | 481 kts | 118° |
| 2026-05-01 09:56 | 52.61302 | 92.68138 | 35128 ft | 481 kts | 118° |
| 2026-05-01 09:57 | 52.58414 | 92.75943 | 35121 ft | 480 kts | 118° |
| 2026-05-01 09:57 | 52.55066 | 92.84965 | 35120 ft | 480 kts | 118° |
| 2026-05-01 09:58 | 52.51581 | 92.94327 | 35123 ft | 480 kts | 118° |
| 2026-05-01 09:58 | 52.48084 | 93.03656 | 35117 ft | 480 kts | 118° |
| 2026-05-01 09:59 | 52.44590 | 93.12977 | 35117 ft | 480 kts | 118° |
| 2026-05-01 09:59 | 52.41094 | 93.22300 | 35116 ft | 480 kts | 118° |
| 2026-05-01 10:00 | 52.37583 | 93.31592 | 35109 ft | 480 kts | 118° |
| 2026-05-01 10:00 | 52.34056 | 93.40866 | 35115 ft | 480 kts | 118° |
| 2026-05-01 10:01 | 52.30530 | 93.50129 | 35103 ft | 480 kts | 118° |
| 2026-05-01 10:01 | 52.26988 | 93.59398 | 35102 ft | 481 kts | 118° |
| 2026-05-01 10:02 | 52.23459 | 93.68584 | 35134 ft | 481 kts | 118° |
| 2026-05-01 10:02 | 52.19905 | 93.77819 | 35131 ft | 480 kts | 118° |
| 2026-05-01 10:03 | 52.16347 | 93.87022 | 35135 ft | 480 kts | 118° |
| 2026-05-01 10:03 | 52.12805 | 93.96231 | 35143 ft | 480 kts | 117° |
| 2026-05-01 10:04 | 52.09338 | 94.05501 | 35138 ft | 479 kts | 117° |
| 2026-05-01 10:04 | 52.05870 | 94.14764 | 35134 ft | 479 kts | 117° |
| 2026-05-01 10:05 | 52.02381 | 94.23997 | 35143 ft | 479 kts | 117° |
| 2026-05-01 10:05 | 51.98876 | 94.33202 | 35138 ft | 479 kts | 117° |
| 2026-05-01 10:06 | 51.95370 | 94.42385 | 35141 ft | 479 kts | 117° |
| 2026-05-01 10:06 | 51.91850 | 94.51560 | 35132 ft | 479 kts | 117° |
| 2026-05-01 10:07 | 51.88331 | 94.60713 | 35141 ft | 479 kts | 117° |
| 2026-05-01 10:07 | 51.84806 | 94.69854 | 35142 ft | 479 kts | 117° |
| 2026-05-01 10:08 | 51.79502 | 94.83547 | 35139 ft | 479 kts | 117° |
| 2026-05-01 10:09 | 51.75956 | 94.92652 | 35140 ft | 479 kts | 117° |
| 2026-05-01 10:09 | 51.72400 | 95.01742 | 35139 ft | 479 kts | 117° |
| 2026-05-01 10:10 | 51.68843 | 95.10809 | 35140 ft | 479 kts | 117° |
| 2026-05-01 10:10 | 51.63498 | 95.24398 | 35143 ft | 479 kts | 117° |
| 2026-05-01 10:11 | 51.59949 | 95.33383 | 35139 ft | 479 kts | 117° |
| 2026-05-01 10:11 | 51.56369 | 95.42414 | 35142 ft | 479 kts | 117° |
| 2026-05-01 10:12 | 51.52780 | 95.51425 | 35143 ft | 479 kts | 118° |
| 2026-05-01 10:13 | 51.47378 | 95.64905 | 35142 ft | 478 kts | 118° |
| 2026-05-01 10:13 | 51.43773 | 95.73877 | 35146 ft | 478 kts | 118° |
| 2026-05-01 10:14 | 51.38366 | 95.87304 | 35146 ft | 478 kts | 118° |
| 2026-05-01 10:14 | 51.34747 | 95.96239 | 35150 ft | 478 kts | 118° |
| 2026-05-01 10:15 | 51.31124 | 96.05137 | 35149 ft | 478 kts | 118° |
| 2026-05-01 10:15 | 51.27488 | 96.14013 | 35143 ft | 477 kts | 118° |
| 2026-05-01 10:16 | 51.23889 | 96.22824 | 35148 ft | 477 kts | 118° |
| 2026-05-01 10:17 | 51.18436 | 96.36085 | 35140 ft | 477 kts | 118° |
| 2026-05-01 10:17 | 51.12963 | 96.49325 | 35135 ft | 477 kts | 118° |
| 2026-05-01 10:18 | 51.07480 | 96.62527 | 35147 ft | 477 kts | 118° |
| 2026-05-01 10:19 | 51.03814 | 96.71307 | 35145 ft | 477 kts | 118° |
| 2026-05-01 10:19 | 51.00144 | 96.80081 | 35153 ft | 476 kts | 119° |
| 2026-05-01 10:20 | 50.94628 | 96.93191 | 35150 ft | 476 kts | 119° |
| 2026-05-01 10:20 | 50.90954 | 97.01918 | 35149 ft | 475 kts | 119° |
| 2026-05-01 10:21 | 50.85433 | 97.14936 | 35147 ft | 475 kts | 119° |
| 2026-05-01 10:22 | 50.79890 | 97.27923 | 35151 ft | 475 kts | 120° |
| 2026-05-01 10:23 | 50.74348 | 97.40897 | 35153 ft | 474 kts | 120° |
| 2026-05-01 10:23 | 50.68819 | 97.53762 | 35158 ft | 474 kts | 120° |
| 2026-05-01 10:24 | 50.61372 | 97.70901 | 35150 ft | 473 kts | 120° |
| 2026-05-01 10:25 | 50.53943 | 97.88004 | 35161 ft | 474 kts | 120° |
| 2026-05-01 10:26 | 50.50213 | 97.96536 | 35164 ft | 473 kts | 120° |
| 2026-05-01 10:27 | 50.42729 | 98.13550 | 35170 ft | 473 kts | 120° |
| 2026-05-01 10:28 | 50.37105 | 98.26252 | 35173 ft | 473 kts | 121° |
| 2026-05-01 10:28 | 50.31466 | 98.38926 | 35166 ft | 473 kts | 121° |
| 2026-05-01 10:29 | 50.25833 | 98.51515 | 35173 ft | 473 kts | 121° |
| 2026-05-01 10:30 | 50.18280 | 98.68286 | 35160 ft | 472 kts | 121° |
| 2026-05-01 10:31 | 50.10704 | 98.84976 | 35151 ft | 471 kts | 121° |
| 2026-05-01 10:32 | 50.05022 | 98.97460 | 35150 ft | 470 kts | 121° |
| 2026-05-01 10:33 | 49.97435 | 99.14009 | 35114 ft | 470 kts | 119° |
| 2026-05-01 10:34 | 49.91715 | 99.26435 | 35102 ft | 473 kts | 120° |
| 2026-05-01 10:34 | 49.87866 | 99.34748 | 35105 ft | 475 kts | 120° |
| 2026-05-01 10:35 | 49.82083 | 99.47202 | 35115 ft | 476 kts | 120° |
| 2026-05-01 10:35 | 49.78207 | 99.55510 | 35117 ft | 476 kts | 120° |
| 2026-05-01 10:36 | 49.72391 | 99.67945 | 35122 ft | 476 kts | 120° |
| 2026-05-01 10:37 | 49.68505 | 99.76218 | 35125 ft | 476 kts | 121° |
| 2026-05-01 10:37 | 49.62662 | 99.88589 | 35130 ft | 475 kts | 121° |
| 2026-05-01 10:38 | 49.58764 | 99.96825 | 35132 ft | 475 kts | 121° |
| 2026-05-01 10:38 | 49.54863 | 100.05060 | 35135 ft | 475 kts | 121° |
| 2026-05-01 10:39 | 49.50961 | 100.13266 | 35136 ft | 475 kts | 121° |
| 2026-05-01 10:39 | 49.47042 | 100.21447 | 35141 ft | 475 kts | 121° |
| 2026-05-01 10:40 | 49.43117 | 100.29611 | 35137 ft | 475 kts | 121° |
| 2026-05-01 10:40 | 49.39201 | 100.37761 | 35139 ft | 474 kts | 121° |
| 2026-05-01 10:41 | 49.35277 | 100.45891 | 35134 ft | 474 kts | 121° |
| 2026-05-01 10:42 | 49.29414 | 100.58009 | 35138 ft | 474 kts | 121° |
| 2026-05-01 10:42 | 49.25480 | 100.66105 | 35140 ft | 474 kts | 122° |
| 2026-05-01 10:43 | 49.21548 | 100.74184 | 35139 ft | 474 kts | 122° |
| 2026-05-01 10:43 | 49.17605 | 100.82253 | 35137 ft | 473 kts | 122° |
| 2026-05-01 10:44 | 49.13656 | 100.90289 | 35141 ft | 473 kts | 122° |
| 2026-05-01 10:44 | 49.09704 | 100.98322 | 35140 ft | 473 kts | 122° |
| 2026-05-01 10:45 | 49.05749 | 101.06331 | 35142 ft | 473 kts | 122° |
| 2026-05-01 10:45 | 49.01787 | 101.14324 | 35143 ft | 473 kts | 122° |
| 2026-05-01 10:46 | 48.98495 | 101.20977 | 35142 ft | 473 kts | 122° |
| 2026-05-01 10:46 | 48.94683 | 101.28665 | 35147 ft | 473 kts | 122° |
| 2026-05-01 10:47 | 48.90705 | 101.36623 | 35146 ft | 473 kts | 123° |
| 2026-05-01 10:47 | 48.86721 | 101.44563 | 35148 ft | 473 kts | 123° |
| 2026-05-01 10:48 | 48.82734 | 101.52510 | 35146 ft | 473 kts | 123° |
| 2026-05-01 10:48 | 48.78810 | 101.60309 | 35145 ft | 473 kts | 123° |
| 2026-05-01 10:49 | 48.74906 | 101.68038 | 35141 ft | 473 kts | 123° |
| 2026-05-01 10:49 | 48.70904 | 101.75947 | 35141 ft | 472 kts | 123° |
| 2026-05-01 10:50 | 48.66900 | 101.83832 | 35144 ft | 472 kts | 123° |
| 2026-05-01 10:50 | 48.62882 | 101.91711 | 35142 ft | 472 kts | 123° |
| 2026-05-01 10:51 | 48.58867 | 101.99568 | 35146 ft | 472 kts | 124° |
| 2026-05-01 10:51 | 48.54847 | 102.07412 | 35150 ft | 472 kts | 124° |
| 2026-05-01 10:52 | 48.50851 | 102.15196 | 35151 ft | 472 kts | 124° |
| 2026-05-01 10:52 | 48.46826 | 102.23015 | 35149 ft | 472 kts | 124° |
| 2026-05-01 10:53 | 48.42782 | 102.30813 | 35145 ft | 472 kts | 124° |
| 2026-05-01 10:53 | 48.38740 | 102.38599 | 35154 ft | 472 kts | 124° |
| 2026-05-01 10:54 | 48.34703 | 102.46384 | 35150 ft | 472 kts | 125° |
| 2026-05-01 10:54 | 48.30656 | 102.54171 | 35147 ft | 472 kts | 125° |
| 2026-05-01 10:55 | 48.26593 | 102.61929 | 35141 ft | 472 kts | 125° |
| 2026-05-01 10:55 | 48.22526 | 102.69672 | 35139 ft | 473 kts | 125° |
| 2026-05-01 10:56 | 48.18455 | 102.77413 | 35135 ft | 473 kts | 126° |
| 2026-05-01 10:56 | 48.14399 | 102.85100 | 35132 ft | 473 kts | 126° |
| 2026-05-01 10:57 | 48.10303 | 102.92832 | 35130 ft | 474 kts | 126° |
| 2026-05-01 10:57 | 48.06205 | 103.00559 | 35131 ft | 474 kts | 126° |
| 2026-05-01 10:58 | 48.02099 | 103.08287 | 35127 ft | 475 kts | 126° |
| 2026-05-01 10:58 | 47.97988 | 103.15999 | 35121 ft | 475 kts | 127° |
| 2026-05-01 10:59 | 47.93864 | 103.23715 | 35118 ft | 476 kts | 127° |
| 2026-05-01 10:59 | 47.89723 | 103.31425 | 35119 ft | 476 kts | 127° |
| 2026-05-01 11:00 | 47.85575 | 103.39123 | 35121 ft | 477 kts | 127° |
| 2026-05-01 11:00 | 47.81411 | 103.46814 | 35116 ft | 477 kts | 128° |
| 2026-05-01 11:01 | 47.77245 | 103.54505 | 35118 ft | 477 kts | 128° |
| 2026-05-01 11:01 | 47.73078 | 103.62195 | 35116 ft | 478 kts | 128° |
| 2026-05-01 11:02 | 47.68903 | 103.69880 | 35121 ft | 478 kts | 128° |
| 2026-05-01 11:02 | 47.64727 | 103.77544 | 35125 ft | 478 kts | 128° |
| 2026-05-01 11:03 | 47.60521 | 103.85208 | 35130 ft | 479 kts | 129° |
| 2026-05-01 11:03 | 47.56316 | 103.92849 | 35127 ft | 479 kts | 129° |
| 2026-05-01 11:04 | 47.52110 | 104.00489 | 35129 ft | 479 kts | 129° |
| 2026-05-01 11:04 | 47.47901 | 104.08128 | 35131 ft | 479 kts | 129° |
| 2026-05-01 11:05 | 47.43688 | 104.15744 | 35133 ft | 479 kts | 129° |
| 2026-05-01 11:05 | 47.39460 | 104.23351 | 35133 ft | 479 kts | 130° |
| 2026-05-01 11:06 | 47.35231 | 104.30940 | 35133 ft | 479 kts | 130° |
| 2026-05-01 11:06 | 47.31000 | 104.38510 | 35135 ft | 479 kts | 130° |
| 2026-05-01 11:07 | 47.24635 | 104.49862 | 35136 ft | 479 kts | 130° |
| 2026-05-01 11:07 | 47.20415 | 104.57367 | 35134 ft | 479 kts | 130° |
| 2026-05-01 11:08 | 47.16166 | 104.64917 | 35131 ft | 479 kts | 130° |
| 2026-05-01 11:09 | 47.09790 | 104.76197 | 35129 ft | 479 kts | 131° |
| 2026-05-01 11:09 | 47.05523 | 104.83702 | 35128 ft | 478 kts | 131° |
| 2026-05-01 11:10 | 46.99132 | 104.94928 | 35128 ft | 478 kts | 131° |
| 2026-05-01 11:10 | 46.94872 | 105.02392 | 35127 ft | 478 kts | 131° |
| 2026-05-01 11:11 | 46.90597 | 105.09836 | 35127 ft | 477 kts | 131° |
| 2026-05-01 11:11 | 46.86327 | 105.17268 | 35124 ft | 477 kts | 131° |
| 2026-05-01 11:12 | 46.82058 | 105.24685 | 35124 ft | 477 kts | 131° |
| 2026-05-01 11:12 | 46.77786 | 105.32095 | 35121 ft | 477 kts | 132° |
| 2026-05-01 11:13 | 46.73503 | 105.39476 | 35119 ft | 477 kts | 132° |
| 2026-05-01 11:13 | 46.69214 | 105.46840 | 35117 ft | 476 kts | 132° |
| 2026-05-01 11:14 | 46.64920 | 105.54204 | 35112 ft | 476 kts | 132° |
| 2026-05-01 11:14 | 46.60630 | 105.61549 | 35110 ft | 477 kts | 132° |
| 2026-05-01 11:15 | 46.56330 | 105.68887 | 35107 ft | 477 kts | 133° |
| 2026-05-01 11:15 | 46.52187 | 105.75947 | 35104 ft | 477 kts | 133° |
| 2026-05-01 11:16 | 46.47881 | 105.83277 | 35102 ft | 477 kts | 133° |
| 2026-05-01 11:16 | 46.43565 | 105.90594 | 35092 ft | 478 kts | 133° |
| 2026-05-01 11:17 | 46.39238 | 105.97907 | 35088 ft | 478 kts | 133° |
| 2026-05-01 11:17 | 46.34901 | 106.05223 | 35089 ft | 479 kts | 133° |
| 2026-05-01 11:18 | 46.30563 | 106.12523 | 35084 ft | 479 kts | 134° |
| 2026-05-01 11:18 | 46.26200 | 106.19821 | 35082 ft | 479 kts | 134° |
| 2026-05-01 11:19 | 46.21856 | 106.27046 | 35079 ft | 480 kts | 134° |
| 2026-05-01 11:19 | 46.17489 | 106.34337 | 35074 ft | 480 kts | 134° |
| 2026-05-01 11:20 | 46.13125 | 106.41616 | 35067 ft | 480 kts | 134° |
| 2026-05-01 11:20 | 46.08735 | 106.48888 | 35065 ft | 481 kts | 135° |
| 2026-05-01 11:21 | 46.04336 | 106.56146 | 35061 ft | 481 kts | 135° |
| 2026-05-01 11:21 | 45.99937 | 106.63415 | 35059 ft | 481 kts | 135° |
| 2026-05-01 11:22 | 45.95528 | 106.70667 | 35059 ft | 482 kts | 135° |
| 2026-05-01 11:22 | 45.91113 | 106.77914 | 35056 ft | 482 kts | 135° |
| 2026-05-01 11:23 | 45.86695 | 106.85155 | 35053 ft | 482 kts | 136° |
| 2026-05-01 11:23 | 45.82258 | 106.92378 | 35045 ft | 483 kts | 136° |
| 2026-05-01 11:24 | 45.77819 | 106.99611 | 35045 ft | 483 kts | 136° |
| 2026-05-01 11:25 | 45.71181 | 107.10391 | 35026 ft | 483 kts | 136° |
| 2026-05-01 11:25 | 45.64465 | 107.21249 | 35025 ft | 484 kts | 137° |
| 2026-05-01 11:26 | 45.57791 | 107.31997 | 35029 ft | 485 kts | 137° |
| 2026-05-01 11:27 | 45.53307 | 107.39200 | 35017 ft | 485 kts | 137° |
| 2026-05-01 11:27 | 45.48817 | 107.46384 | 35010 ft | 486 kts | 137° |
| 2026-05-01 11:28 | 45.44316 | 107.53575 | 35013 ft | 486 kts | 138° |
| 2026-05-01 11:28 | 45.39975 | 107.60493 | 34998 ft | 487 kts | 138° |
| 2026-05-01 11:29 | 45.33193 | 107.71253 | 35004 ft | 488 kts | 138° |
| 2026-05-01 11:30 | 45.26378 | 107.82035 | 35004 ft | 489 kts | 139° |
| 2026-05-01 11:30 | 45.21824 | 107.89214 | 34995 ft | 490 kts | 139° |
| 2026-05-01 11:31 | 45.17263 | 107.96396 | 34996 ft | 491 kts | 139° |
| 2026-05-01 11:31 | 45.12686 | 108.03584 | 34997 ft | 491 kts | 139° |
| 2026-05-01 11:32 | 45.08097 | 108.10754 | 34997 ft | 492 kts | 139° |
| 2026-05-01 11:32 | 45.04274 | 108.16719 | 34999 ft | 492 kts | 139° |
| 2026-05-01 11:33 | 44.99665 | 108.23879 | 35000 ft | 492 kts | 140° |
| 2026-05-01 11:33 | 44.95050 | 108.31031 | 35003 ft | 493 kts | 140° |
| 2026-05-01 11:34 | 44.90425 | 108.38190 | 35004 ft | 493 kts | 140° |
| 2026-05-01 11:34 | 44.85802 | 108.45330 | 35008 ft | 493 kts | 140° |
| 2026-05-01 11:35 | 44.81180 | 108.52454 | 35010 ft | 493 kts | 140° |
| 2026-05-01 11:35 | 44.76549 | 108.59573 | 35013 ft | 493 kts | 141° |
| 2026-05-01 11:36 | 44.71917 | 108.66668 | 35010 ft | 493 kts | 141° |
| 2026-05-01 11:36 | 44.67278 | 108.73766 | 35011 ft | 493 kts | 141° |
| 2026-05-01 11:37 | 44.62634 | 108.80837 | 35002 ft | 493 kts | 141° |
| 2026-05-01 11:37 | 44.58013 | 108.87857 | 35001 ft | 493 kts | 141° |
| 2026-05-01 11:38 | 44.53352 | 108.94924 | 35000 ft | 493 kts | 141° |
| 2026-05-01 11:38 | 44.48683 | 109.01983 | 35000 ft | 494 kts | 141° |
| 2026-05-01 11:39 | 44.44012 | 109.09045 | 34993 ft | 495 kts | 141° |
| 2026-05-01 11:39 | 44.39326 | 109.16103 | 34996 ft | 495 kts | 141° |
| 2026-05-01 11:40 | 44.34629 | 109.23142 | 34988 ft | 496 kts | 142° |
| 2026-05-01 11:40 | 44.29920 | 109.30190 | 34984 ft | 496 kts | 142° |
| 2026-05-01 11:41 | 44.25209 | 109.37235 | 34985 ft | 497 kts | 142° |
| 2026-05-01 11:41 | 44.20485 | 109.44281 | 34986 ft | 497 kts | 142° |
| 2026-05-01 11:42 | 44.15754 | 109.51312 | 34985 ft | 498 kts | 142° |
| 2026-05-01 11:42 | 44.11009 | 109.58346 | 34979 ft | 498 kts | 142° |
| 2026-05-01 11:43 | 44.06256 | 109.65372 | 34979 ft | 499 kts | 142° |
| 2026-05-01 11:43 | 44.01489 | 109.72406 | 34982 ft | 500 kts | 142° |
| 2026-05-01 11:44 | 43.94330 | 109.82936 | 34984 ft | 500 kts | 142° |
| 2026-05-01 11:44 | 43.89550 | 109.89940 | 34981 ft | 501 kts | 142° |
| 2026-05-01 11:45 | 43.84783 | 109.96908 | 34985 ft | 501 kts | 142° |
| 2026-05-01 11:45 | 43.79943 | 110.03969 | 34986 ft | 502 kts | 142° |
| 2026-05-01 11:46 | 43.75169 | 110.10912 | 34986 ft | 502 kts | 142° |
| 2026-05-01 11:46 | 43.70349 | 110.17905 | 34984 ft | 502 kts | 142° |
| 2026-05-01 11:47 | 43.65530 | 110.24883 | 34979 ft | 502 kts | 142° |
| 2026-05-01 11:47 | 43.60700 | 110.31862 | 34981 ft | 503 kts | 142° |
| 2026-05-01 11:48 | 43.55862 | 110.38837 | 34977 ft | 503 kts | 143° |
| 2026-05-01 11:48 | 43.51015 | 110.45802 | 34975 ft | 503 kts | 143° |
| 2026-05-01 11:49 | 43.46167 | 110.52749 | 34971 ft | 504 kts | 143° |
| 2026-05-01 11:49 | 43.41308 | 110.59704 | 34973 ft | 505 kts | 143° |
| 2026-05-01 11:50 | 43.36436 | 110.66681 | 34971 ft | 505 kts | 143° |
| 2026-05-01 11:50 | 43.31723 | 110.73393 | 34975 ft | 506 kts | 143° |
| 2026-05-01 11:51 | 43.26815 | 110.80348 | 34973 ft | 506 kts | 143° |
| 2026-05-01 11:51 | 43.21913 | 110.87281 | 34972 ft | 506 kts | 142° |
| 2026-05-01 11:52 | 43.17360 | 110.94776 | 34967 ft | 513 kts | 137° |
| 2026-05-01 11:52 | 43.12872 | 111.02383 | 34970 ft | 513 kts | 137° |
| 2026-05-01 11:53 | 43.08375 | 111.09983 | 34969 ft | 513 kts | 137° |
| 2026-05-01 11:53 | 43.03876 | 111.17562 | 34963 ft | 513 kts | 137° |
| 2026-05-01 11:54 | 42.99372 | 111.25141 | 34968 ft | 513 kts | 137° |
| 2026-05-01 11:54 | 42.94864 | 111.32698 | 34960 ft | 514 kts | 137° |
| 2026-05-01 11:55 | 42.90338 | 111.40248 | 34965 ft | 514 kts | 137° |
| 2026-05-01 11:55 | 42.85805 | 111.47795 | 34959 ft | 514 kts | 137° |
| 2026-05-01 11:56 | 42.81297 | 111.55295 | 34955 ft | 515 kts | 137° |
| 2026-05-01 11:56 | 42.76927 | 111.62539 | 34957 ft | 516 kts | 137° |
| 2026-05-01 11:57 | 42.72374 | 111.70073 | 34956 ft | 516 kts | 137° |
| 2026-05-01 11:57 | 42.67805 | 111.77621 | 34953 ft | 517 kts | 138° |
| 2026-05-01 11:58 | 42.63233 | 111.85151 | 34956 ft | 517 kts | 138° |
| 2026-05-01 11:59 | 42.56371 | 111.96481 | 34954 ft | 519 kts | 137° |
| 2026-05-01 11:59 | 42.51856 | 112.04108 | 34958 ft | 519 kts | 137° |
| 2026-05-01 12:00 | 42.45063 | 112.15559 | 34966 ft | 520 kts | 137° |
| 2026-05-01 12:01 | 42.38235 | 112.26948 | 34956 ft | 520 kts | 137° |
| 2026-05-01 12:01 | 42.36721 | 112.29461 | 34958 ft | 520 kts | 137° |